createdAt,value
2022-10-06T00:03:45.211Z,13.01
2022-10-06T00:08:47.696Z,13.01
2022-10-06T00:13:49.150Z,13.01
2022-10-06T00:18:50.745Z,12.97
2022-10-06T00:23:52.214Z,12.94
2022-10-06T00:28:53.675Z,12.88
2022-10-06T00:33:55.163Z,12.83
2022-10-06T00:38:56.706Z,12.75
2022-10-06T00:43:59.301Z,12.67
2022-10-06T00:49:13.686Z,12.64
2022-10-06T00:54:16.559Z,12.59
2022-10-06T00:59:19.601Z,12.57
2022-10-06T01:04:22.093Z,12.53
2022-10-06T01:09:25.444Z,12.51
2022-10-06T01:14:27.610Z,12.47
2022-10-06T01:19:31.813Z,12.45
2022-10-06T01:24:33.400Z,12.39
2022-10-06T01:29:35.915Z,12.37
2022-10-06T01:34:37.376Z,12.32
2022-10-06T01:39:38.914Z,12.31
2022-10-06T01:44:40.634Z,12.28
2022-10-06T01:49:42.072Z,12.24
2022-10-06T01:54:43.509Z,12.20
2022-10-06T01:59:44.984Z,12.18
2022-10-06T02:04:46.501Z,12.14
2022-10-06T02:09:47.960Z,12.12
2022-10-06T02:14:49.416Z,12.08
2022-10-06T02:19:50.966Z,12.03
2022-10-06T02:24:52.440Z,12.03
2022-10-06T02:29:55.870Z,12.01
2022-10-06T02:34:57.301Z,12.01
2022-10-06T02:39:58.770Z,11.98
2022-10-06T02:45:00.194Z,11.93
2022-10-06T02:50:04.036Z,11.92
2022-10-06T02:55:07.463Z,11.86
2022-10-06T03:00:10.483Z,11.79
2022-10-06T03:05:11.934Z,11.71
2022-10-06T03:10:13.407Z,11.66
2022-10-06T03:15:14.934Z,11.62
2022-10-06T03:20:16.398Z,11.57
2022-10-06T03:25:17.953Z,11.53
2022-10-06T03:30:19.576Z,11.48
2022-10-06T03:35:21.337Z,11.47
2022-10-06T03:40:22.792Z,11.48
2022-10-06T03:45:24.267Z,11.42
2022-10-06T03:50:25.745Z,11.35
2022-10-06T03:55:27.183Z,11.35
2022-10-06T04:00:29.059Z,11.37
2022-10-06T04:05:30.513Z,11.31
2022-10-06T04:10:33.245Z,11.30
2022-10-06T04:15:34.788Z,11.28
2022-10-06T04:20:36.328Z,11.28
2022-10-06T04:25:37.922Z,11.25
2022-10-06T04:30:39.423Z,11.19
2022-10-06T04:35:40.881Z,11.18
2022-10-06T04:40:42.321Z,11.14
2022-10-06T04:45:43.833Z,11.13
2022-10-06T04:50:53.822Z,11.11
2022-10-06T04:56:15.839Z,11.10
2022-10-06T05:01:20.178Z,11.04
2022-10-06T05:06:24.400Z,11.06
2022-10-06T05:11:26.653Z,11.05
2022-10-06T05:16:30.527Z,11.03
2022-10-06T05:21:33.019Z,10.99
2022-10-06T05:26:36.180Z,10.98
2022-10-06T05:31:43.092Z,10.96
2022-10-06T05:36:44.622Z,10.90
2022-10-06T05:41:46.078Z,10.86
2022-10-06T05:46:47.578Z,10.84
2022-10-06T05:51:49.111Z,10.84
2022-10-06T05:56:50.555Z,10.84
2022-10-06T06:01:52.240Z,10.81
2022-10-06T06:06:53.769Z,10.74
2022-10-06T06:11:55.754Z,10.74
2022-10-06T06:16:57.229Z,10.75
2022-10-06T06:21:58.770Z,10.79
2022-10-06T06:27:00.298Z,10.84
2022-10-06T06:32:01.874Z,10.88
2022-10-06T06:37:07.498Z,10.94
2022-10-06T06:42:10.818Z,10.97
2022-10-06T06:47:12.636Z,11.03
2022-10-06T06:52:14.284Z,11.08
2022-10-06T06:57:16.538Z,11.19
2022-10-06T07:02:18.043Z,11.29
2022-10-06T07:07:20.869Z,11.38
2022-10-06T07:12:22.405Z,11.49
2022-10-06T07:17:42.475Z,11.60
2022-10-06T07:23:02.892Z,11.72
2022-10-06T07:28:04.592Z,11.87
2022-10-06T07:33:06.525Z,12.02
2022-10-06T07:38:08.618Z,12.17
2022-10-06T07:43:10.083Z,12.35
2022-10-06T07:48:18.118Z,12.55
2022-10-06T07:53:20.059Z,12.73
2022-10-06T07:58:24.148Z,12.89
2022-10-06T08:03:25.934Z,13.07
2022-10-06T08:08:30.273Z,13.28
2022-10-06T08:13:34.825Z,13.43
2022-10-06T08:18:51.793Z,13.60
2022-10-06T08:23:54.217Z,13.82
2022-10-06T08:29:03.173Z,13.91
2022-10-06T08:34:11.811Z,14.14
2022-10-06T08:39:13.655Z,14.30
2022-10-06T08:44:26.648Z,14.48
2022-10-06T08:49:37.384Z,14.50
2022-10-06T08:54:52.519Z,14.56
2022-10-06T08:59:54.285Z,14.74
2022-10-06T09:05:00.075Z,15.04
2022-10-06T09:10:01.485Z,14.96
2022-10-06T09:15:09.682Z,14.93
2022-10-06T09:20:20.699Z,14.98
2022-10-06T09:25:28.097Z,15.11
2022-10-06T09:30:29.451Z,15.20
2022-10-06T09:35:32.209Z,15.23
2022-10-06T09:40:36.472Z,15.24
2022-10-06T09:45:37.928Z,15.33
2022-10-06T09:50:40.606Z,15.42
2022-10-06T09:55:46.780Z,15.49
2022-10-06T10:00:55.682Z,15.59
2022-10-06T10:05:59.717Z,15.70
2022-10-06T10:11:37.064Z,15.77
2022-10-06T10:16:38.596Z,15.83
2022-10-06T10:21:41.801Z,15.87
2022-10-06T10:26:50.077Z,15.78
2022-10-06T10:31:57.483Z,15.91
2022-10-06T10:37:04.809Z,15.99
2022-10-06T10:42:12.009Z,16.09
2022-10-06T10:47:28.588Z,16.07
2022-10-06T10:52:35.820Z,16.12
2022-10-06T10:57:41.158Z,16.17
2022-10-06T11:02:42.721Z,16.24
2022-10-06T11:08:02.008Z,16.43
2022-10-06T11:13:19.906Z,16.43
2022-10-06T11:18:47.233Z,16.46
2022-10-06T11:23:55.718Z,16.35
2022-10-06T11:29:02.968Z,16.25
2022-10-06T11:34:06.420Z,16.16
2022-10-06T11:39:22.328Z,16.18
2022-10-06T11:44:32.019Z,16.18
2022-10-06T11:49:52.111Z,16.23
2022-10-06T11:54:56.478Z,16.20
2022-10-06T12:00:04.021Z,16.22
2022-10-06T12:05:55.249Z,16.21
2022-10-06T12:10:36.308Z,16.18
2022-10-06T12:22:08.322Z,16.22
2022-10-06T12:27:48.624Z,16.11
2022-10-06T12:32:54.622Z,16.07
2022-10-06T12:37:58.463Z,16.12
2022-10-06T12:43:17.291Z,16.13
2022-10-06T12:48:26.789Z,16.11
2022-10-06T12:53:34.580Z,16.13
2022-10-06T12:58:36.045Z,16.06
2022-10-06T13:03:38.471Z,16.03
2022-10-06T13:08:40.209Z,16.00
2022-10-06T13:13:53.679Z,15.95
2022-10-06T13:18:57.552Z,15.97
2022-10-06T13:23:59.191Z,15.89
2022-10-06T13:29:00.936Z,15.85
2022-10-06T13:34:05.344Z,15.83
2022-10-06T13:39:13.273Z,15.76
2022-10-06T13:44:14.672Z,15.71
2022-10-06T13:49:22.574Z,15.67
2022-10-06T13:54:38.951Z,15.69
2022-10-06T13:59:41.204Z,15.64
2022-10-06T14:04:42.715Z,15.55
2022-10-06T14:09:44.223Z,15.49
2022-10-06T14:14:49.242Z,15.47
2022-10-06T14:19:51.434Z,15.38
2022-10-06T14:24:53.135Z,15.33
2022-10-06T14:29:56.334Z,15.25
2022-10-06T14:34:58.705Z,15.23
2022-10-06T14:40:00.398Z,15.24
2022-10-06T14:45:02.781Z,15.23
2022-10-06T14:50:05.444Z,15.22
2022-10-06T15:00:32.162Z,15.14
2022-10-06T15:05:35.149Z,15.12
2022-10-06T15:10:39.187Z,15.01
2022-10-06T15:15:40.956Z,14.99
2022-10-06T15:20:47.353Z,14.97
2022-10-06T15:26:11.433Z,14.93
2022-10-06T15:31:12.951Z,14.89
2022-10-06T15:36:19.638Z,14.88
2022-10-06T15:41:22.153Z,14.77
2022-10-06T15:46:26.801Z,14.68
2022-10-06T15:51:38.423Z,14.61
2022-10-06T15:56:40.111Z,14.60
2022-10-06T16:01:46.702Z,14.47
2022-10-06T16:06:55.356Z,14.45
2022-10-06T16:11:58.318Z,14.40
2022-10-06T16:17:00.929Z,14.34
2022-10-06T16:22:02.916Z,14.29
2022-10-06T16:27:04.478Z,14.21
2022-10-06T16:32:05.938Z,14.13
2022-10-06T16:37:07.407Z,14.07
2022-10-06T16:42:10.886Z,14.01
2022-10-06T16:47:12.399Z,13.97
2022-10-06T16:52:13.925Z,13.89
2022-10-06T16:57:15.402Z,13.83
2022-10-06T17:02:17.214Z,13.78
2022-10-06T17:07:18.802Z,13.70
2022-10-06T17:12:20.267Z,13.65
2022-10-06T17:17:21.702Z,13.56
2022-10-06T17:22:23.225Z,13.50
2022-10-06T17:27:28.489Z,13.46
2022-10-06T17:32:29.914Z,13.40
2022-10-06T17:37:31.389Z,13.37
2022-10-06T17:42:32.935Z,13.32
2022-10-06T17:47:34.410Z,13.29
2022-10-06T17:52:39.099Z,13.21
2022-10-06T17:57:41.013Z,13.16
2022-10-06T18:02:42.773Z,13.12
2022-10-06T18:07:44.406Z,13.07
2022-10-06T18:12:46.460Z,13.03
2022-10-06T18:17:50.510Z,12.97
2022-10-06T18:22:53.040Z,12.91
2022-10-06T18:27:54.878Z,12.86
2022-10-06T18:35:29.913Z,12.80
2022-10-06T18:38:17.917Z,12.73
2022-10-06T18:43:19.393Z,12.69
2022-10-06T18:48:39.545Z,12.67
2022-10-06T18:53:41.030Z,12.68
2022-10-06T18:58:47.113Z,12.70
2022-10-06T19:03:48.890Z,12.71
2022-10-06T19:08:56.843Z,12.70
2022-10-06T19:13:59.882Z,12.68
2022-10-06T19:19:10.555Z,12.69
2022-10-06T19:24:14.978Z,12.61
2022-10-06T19:29:22.393Z,12.68
2022-10-06T19:34:25.068Z,12.65
2022-10-06T19:39:30.421Z,12.60
2022-10-06T19:44:31.894Z,12.56
2022-10-06T19:49:35.162Z,12.56
2022-10-06T19:54:37.088Z,12.53
2022-10-06T19:59:38.979Z,12.51
2022-10-06T20:04:41.053Z,12.50
2022-10-06T20:09:42.519Z,12.51
2022-10-06T20:14:44.144Z,12.47
2022-10-06T20:19:46.486Z,12.46
2022-10-06T20:24:47.975Z,12.45
2022-10-06T20:29:49.421Z,12.42
2022-10-06T20:34:50.867Z,12.38
2022-10-06T20:40:10.890Z,12.34
2022-10-06T20:45:12.338Z,12.31
2022-10-06T20:50:13.924Z,12.29
2022-10-06T20:55:15.474Z,12.32
2022-10-06T21:00:17.762Z,12.33
2022-10-06T21:05:20.076Z,12.32
2022-10-06T21:10:22.929Z,12.31
2022-10-06T21:15:24.357Z,12.29
2022-10-06T21:20:26.007Z,12.30
2022-10-06T21:25:27.476Z,12.29
2022-10-06T21:30:29.496Z,12.28
2022-10-06T21:35:30.947Z,12.29
2022-10-06T21:40:36.113Z,12.28
2022-10-06T21:45:39.098Z,12.26
2022-10-06T21:50:41.039Z,12.28
2022-10-06T21:55:42.488Z,12.26
2022-10-06T22:00:44.020Z,12.25
2022-10-06T22:05:45.519Z,12.27
2022-10-06T22:10:46.984Z,12.27
2022-10-06T22:15:48.500Z,12.25
2022-10-06T22:20:50.011Z,12.23
2022-10-06T22:25:55.910Z,12.22
2022-10-06T22:31:07.917Z,12.19
2022-10-06T22:36:11.987Z,12.18
2022-10-06T22:41:14.372Z,12.16
2022-10-06T22:46:15.861Z,12.13
2022-10-06T22:51:17.404Z,12.11
2022-10-06T22:56:19.215Z,12.08
2022-10-06T23:01:21.002Z,12.07
2022-10-06T23:06:22.532Z,12.08
2022-10-06T23:11:24.018Z,12.08
2022-10-06T23:16:25.558Z,12.07
2022-10-06T23:21:27.622Z,12.02
2022-10-06T23:26:31.399Z,12.03
2022-10-06T23:31:32.912Z,12.00
2022-10-06T23:36:34.412Z,12.00
2022-10-06T23:41:35.862Z,11.98
2022-10-06T23:46:37.296Z,11.95
2022-10-06T23:51:38.777Z,11.95
2022-10-06T23:56:40.231Z,11.91
